Time;durP1;ratioP1;P1;durP2;ratioP2;P2;SDS_P1;SDS_P2;PMS_P1;PMS_P2;Temp;Humidity;BMP_temperature;BMP_pressure;BME280_temperature;BME280_humidity;BME280_pressure;Samples;Min_cycle;Max_cycle;Signal;HPM_P1;HPM_P2
2023/04/28 00:02:06;;;;;;;14.55;8.88;;;;;;;9.21;73.63;101272.50;4964070;28;20031;-96
2023/04/28 00:04:31;;;;;;;15.90;8.80;;;;;;;9.25;72.94;101276.13;4957987;28;20027;-96
2023/04/28 00:07:02;;;;;;;14.00;8.73;;;;;;;9.29;73.92;101273.69;4980735;28;20128;-96
2023/04/28 00:09:28;;;;;;;15.15;9.50;;;;;;;9.30;73.76;101271.97;4963433;28;20113;-96
2023/04/28 00:12:02;;;;;;;15.77;9.38;;;;;;;9.30;73.60;101278.06;4962929;28;20105;-96
2023/04/28 00:14:27;;;;;;;16.70;9.65;;;;;;;9.31;73.53;101268.53;4963051;28;20062;-96
2023/04/28 00:16:58;;;;;;;16.55;9.27;;;;;;;9.27;73.20;101256.25;4958836;28;20588;-96
2023/04/28 00:19:23;;;;;;;16.70;9.68;;;;;;;9.21;74.25;101252.63;4965456;28;20030;-96
2023/04/28 00:21:53;;;;;;;15.00;8.98;;;;;;;9.15;73.82;101248.91;4961217;28;20029;-96
2023/04/28 00:24:19;;;;;;;15.40;9.20;;;;;;;9.12;76.13;101254.88;4958769;28;20027;-96
2023/04/28 00:26:45;;;;;;;16.67;9.65;;;;;;;9.11;76.46;101255.72;4961029;28;20377;-96
2023/04/28 00:29:10;;;;;;;17.10;10.25;;;;;;;9.15;77.13;101252.41;4973754;28;20035;-96
2023/04/28 00:31:36;;;;;;;15.65;9.27;;;;;;;9.17;77.55;101250.75;4965360;28;20114;-96
2023/04/28 00:34:01;;;;;;;17.05;9.77;;;;;;;9.14;76.75;101245.44;4980146;28;20021;-96
2023/04/28 00:36:32;;;;;;;17.67;10.32;;;;;;;9.11;76.47;101234.03;4964448;28;20077;-96
2023/04/28 00:39:00;;;;;;;16.35;9.40;;;;;;;9.08;76.47;101228.72;4974528;28;20073;-96
2023/04/28 00:41:34;;;;;;;17.83;10.23;;;;;;;9.04;78.11;101220.81;4978898;28;20027;-96
2023/04/28 00:43:59;;;;;;;18.02;9.93;;;;;;;9.00;79.07;101212.84;4983415;28;20034;-96
2023/04/28 00:46:35;;;;;;;18.73;10.00;;;;;;;8.95;78.87;101217.00;4973210;28;20117;-96
2023/04/28 00:49:06;;;;;;;19.60;9.98;;;;;;;8.95;79.12;101219.59;4967246;28;20027;-96
2023/04/28 00:51:34;;;;;;;16.83;9.73;;;;;;;8.92;80.44;101211.69;4968676;28;20559;-96
2023/04/28 00:54:05;;;;;;;17.95;11.00;;;;;;;8.86;80.57;101207.16;4970178;28;20029;-96
2023/04/28 00:56:32;;;;;;;18.42;10.68;;;;;;;8.79;80.96;101195.66;4972462;28;20023;-96
2023/04/28 00:59:00;;;;;;;21.42;10.93;;;;;;;8.74;82.10;101196.31;4975494;28;20023;-96
2023/04/28 01:01:26;;;;;;;18.90;11.00;;;;;;;8.69;82.00;101194.44;4986754;28;20038;-96
2023/04/28 01:03:54;;;;;;;17.83;10.20;;;;;;;8.67;82.58;101195.19;4972156;28;20027;-96
2023/04/28 01:06:24;;;;;;;18.58;10.80;;;;;;;8.69;83.09;101191.84;4967866;28;20030;-96
2023/04/28 01:08:55;;;;;;;15.85;10.18;;;;;;;8.70;83.95;101192.72;4970951;28;20090;-96
2023/04/28 01:11:20;;;;;;;17.50;9.73;;;;;;;8.73;83.86;101189.34;4967045;28;20108;-96
2023/04/28 01:13:56;;;;;;;17.15;10.18;;;;;;;8.73;83.09;101189.34;4965988;28;20083;-96
2023/04/28 01:16:21;;;;;;;20.45;10.52;;;;;;;8.68;83.07;101190.06;4966201;28;20047;-96
2023/04/28 01:18:47;;;;;;;17.75;10.25;;;;;;;8.59;83.04;101186.22;4971385;28;20038;-96
2023/04/28 01:21:34;;;;;;;17.60;10.52;;;;;;;8.53;83.47;101174.81;4971134;28;20018;-96
2023/04/28 01:24:00;;;;;;;17.23;10.15;;;;;;;8.48;83.64;101158.16;4970646;28;20027;-96
2023/04/28 01:26:29;;;;;;;18.75;10.23;;;;;;;8.39;82.32;101142.22;4972692;28;20069;-96
2023/04/28 01:28:54;;;;;;;20.08;10.73;;;;;;;8.34;82.86;101144.63;4976771;28;20049;-96
2023/04/28 01:31:26;;;;;;;17.25;10.07;;;;;;;8.26;83.06;101150.38;4980235;28;20022;-96
2023/04/28 01:33:55;;;;;;;16.33;9.93;;;;;;;8.26;84.05;101159.03;4990474;28;20031;-96
2023/04/28 01:36:23;;;;;;;21.98;11.32;;;;;;;8.29;83.15;101155.69;4974623;28;20030;-96
2023/04/28 01:38:53;;;;;;;18.65;10.95;;;;;;;8.27;84.54;101158.22;4961926;28;20037;-96
2023/04/28 01:41:21;;;;;;;19.05;10.32;;;;;;;8.24;85.05;101152.00;4961362;28;20038;-96
2023/04/28 01:43:47;;;;;;;18.13;10.63;;;;;;;8.25;85.68;101148.59;4956934;28;20117;-96
2023/04/28 01:46:12;;;;;;;18.60;10.57;;;;;;;8.22;85.94;101145.88;4961560;28;20320;-96
2023/04/28 01:48:40;;;;;;;22.58;10.75;;;;;;;8.21;85.09;101146.69;4964884;28;20408;-96
2023/04/28 01:51:05;;;;;;;18.90;11.00;;;;;;;8.21;85.71;101141.50;4957730;28;20023;-96
2023/04/28 01:53:31;;;;;;;18.63;10.52;;;;;;;8.18;86.19;101142.28;4959954;28;20022;-96
2023/04/28 01:55:57;;;;;;;18.42;10.48;;;;;;;8.13;85.92;101136.91;4962085;28;20050;-96
2023/04/28 01:58:26;;;;;;;21.25;11.32;;;;;;;8.11;86.02;101133.38;4960248;28;20727;-96
2023/04/28 02:00:51;;;;;;;19.30;11.27;;;;;;;8.15;86.47;101142.16;4962295;28;20030;-96
2023/04/28 02:03:16;;;;;;;19.77;11.02;;;;;;;8.16;86.53;101139.63;4963289;28;20129;-96
2023/04/28 02:05:42;;;;;;;19.77;10.48;;;;;;;8.18;86.77;101143.19;4970078;28;20114;-96
2023/04/28 02:08:10;;;;;;;20.48;11.15;;;;;;;8.21;87.25;101136.31;4957695;28;20069;-96
2023/04/28 02:10:36;;;;;;;19.58;10.85;;;;;;;8.21;87.32;101136.31;4964023;28;20058;-96
2023/04/28 02:13:01;;;;;;;19.88;11.40;;;;;;;8.18;86.69;101137.97;4959203;28;20061;-96
2023/04/28 02:15:27;;;;;;;19.25;10.85;;;;;;;8.17;86.50;101130.16;4964042;28;20019;-96
2023/04/28 02:17:55;;;;;;;21.85;11.25;;;;;;;8.14;86.56;101135.19;4960229;28;20134;-96
2023/04/28 02:20:26;;;;;;;19.30;10.88;;;;;;;8.15;87.42;101122.28;4964744;28;20038;-96
2023/04/28 02:22:52;;;;;;;19.65;10.80;;;;;;;8.14;88.09;101115.31;4960074;28;21014;-96
2023/04/28 02:25:17;;;;;;;20.27;11.55;;;;;;;8.15;88.43;101111.91;4980302;28;20026;-96
2023/04/28 02:27:43;;;;;;;20.33;11.90;;;;;;;8.15;88.74;101103.22;4966343;28;20030;-96
2023/04/28 02:30:08;;;;;;;22.52;11.20;;;;;;;8.15;88.91;101101.53;4960500;28;20030;-96
2023/04/28 02:32:39;;;;;;;23.38;11.77;;;;;;;8.15;89.21;101091.16;4963474;28;20472;-96
2023/04/28 02:35:05;;;;;;;19.35;11.32;;;;;;;8.15;89.37;101088.56;4971569;28;20039;-96
2023/04/28 02:37:49;;;;;;;18.35;11.30;;;;;;;8.10;89.27;101071.91;4956733;28;20029;-96
2023/04/28 02:40:20;;;;;;;22.15;11.77;;;;;;;8.04;89.73;101063.00;4972444;28;20050;-96
2023/04/28 02:42:46;;;;;;;23.08;12.05;;;;;;;7.99;90.03;101065.44;4975871;28;20034;-96
2023/04/28 02:45:14;;;;;;;21.63;12.05;;;;;;;7.96;90.21;101053.22;4966867;28;20023;-96
2023/04/28 02:47:42;;;;;;;24.20;12.02;;;;;;;7.92;91.07;101042.69;4959025;28;20385;-96
2023/04/28 02:50:08;;;;;;;20.45;11.48;;;;;;;7.92;91.27;101045.28;4965207;28;20568;-96
2023/04/28 02:52:36;;;;;;;22.45;11.68;;;;;;;7.94;91.30;101028.06;4973771;28;20053;-96
2023/04/28 02:55:04;;;;;;;21.52;12.07;;;;;;;7.95;90.93;101029.81;4965559;28;20018;-96
2023/04/28 03:00:11;;;;;;;20.90;11.90;;;;;;;8.01;90.88;101053.41;4995126;28;20042;-67
2023/04/28 03:02:36;;;;;;;21.63;11.88;;;;;;;8.02;90.25;101052.56;4997091;28;20082;-67
2023/04/28 03:05:01;;;;;;;19.58;11.73;;;;;;;8.03;90.90;101043.97;4996994;28;20474;-67
2023/04/28 03:07:27;;;;;;;19.00;11.65;;;;;;;8.08;90.66;101044.13;4996713;28;20026;-67
2023/04/28 03:09:52;;;;;;;22.73;12.50;;;;;;;8.09;90.81;101046.78;4996975;28;20470;-67
2023/04/28 03:12:17;;;;;;;22.33;12.35;;;;;;;8.10;90.54;101048.56;4980872;28;20045;-67
2023/04/28 03:14:42;;;;;;;22.83;12.45;;;;;;;8.14;90.54;101045.25;4996619;28;20559;-67
2023/04/28 03:17:08;;;;;;;23.40;12.80;;;;;;;8.17;90.80;101042.75;4980611;28;20033;-67
2023/04/28 03:19:33;;;;;;;20.67;11.95;;;;;;;8.18;90.70;101028.97;4996775;28;20026;-67
2023/04/28 03:21:58;;;;;;;24.25;12.70;;;;;;;8.19;90.45;101035.91;4995985;28;20111;-67
2023/04/28 03:24:24;;;;;;;21.15;12.45;;;;;;;8.20;91.27;101039.41;4996502;28;20520;-67
2023/04/28 03:26:50;;;;;;;21.25;12.18;;;;;;;8.24;91.17;101042.97;4978768;28;20030;-67
2023/04/28 03:29:15;;;;;;;22.90;12.85;;;;;;;8.27;90.66;101038.78;4996271;28;20034;-68
2023/04/28 03:31:40;;;;;;;23.13;13.15;;;;;;;8.32;90.34;101046.75;4978921;28;20160;-67
2023/04/28 03:34:06;;;;;;;24.15;12.63;;;;;;;8.32;90.70;101046.75;4996714;28;20021;-67
2023/04/28 03:36:31;;;;;;;21.67;12.50;;;;;;;8.32;91.04;101036.34;4996791;28;20436;-67
2023/04/28 03:38:57;;;;;;;24.40;13.25;;;;;;;8.31;90.86;101042.38;4996366;28;20105;-67
2023/04/28 03:41:22;;;;;;;23.35;12.88;;;;;;;8.32;90.57;101038.97;4996446;28;20029;-67
2023/04/28 03:43:47;;;;;;;25.17;13.25;;;;;;;8.34;91.27;101039.88;4996159;28;20033;-67
2023/04/28 03:46:13;;;;;;;21.27;12.75;;;;;;;8.34;91.15;101034.69;4995818;28;20022;-67
2023/04/28 03:48:38;;;;;;;22.40;13.10;;;;;;;8.36;91.30;101031.31;4996337;28;20034;-67
2023/04/28 03:51:03;;;;;;;24.48;13.45;;;;;;;8.40;92.06;101034.94;4996252;28;20070;-67
2023/04/28 03:53:28;;;;;;;24.75;13.35;;;;;;;8.42;92.45;101028.06;4996138;28;20029;-67
2023/04/28 03:55:54;;;;;;;23.60;13.80;;;;;;;8.41;92.01;101028.88;4995746;28;20030;-67
2023/04/28 03:58:19;;;;;;;24.10;13.63;;;;;;;8.42;91.92;101022.00;4995606;28;20565;-67
2023/04/28 04:00:45;;;;;;;22.30;14.02;;;;;;;8.43;92.42;101019.44;4995887;28;20030;-67
2023/04/28 04:03:10;;;;;;;23.80;14.13;;;;;;;8.46;92.73;101010.94;4995793;28;20026;-67
2023/04/28 04:05:38;;;;;;;23.42;13.80;;;;;;;8.44;92.86;101016.03;4995645;28;20563;-67
2023/04/28 04:08:04;;;;;;;27.63;14.88;;;;;;;8.41;93.34;101008.13;4995611;28;20030;-67
2023/04/28 04:10:30;;;;;;;23.77;14.40;;;;;;;8.42;93.72;101007.28;4987257;28;20033;-67
2023/04/28 04:12:55;;;;;;;24.92;13.85;;;;;;;8.48;93.49;101006.66;4995729;28;20477;-67
2023/04/28 04:15:20;;;;;;;23.10;15.00;;;;;;;8.51;93.59;101005.03;4995365;28;20057;-67
2023/04/28 04:17:46;;;;;;;23.55;15.18;;;;;;;8.57;93.22;101006.09;4996505;28;20096;-67
2023/04/28 04:20:11;;;;;;;27.08;14.80;;;;;;;8.56;92.98;101005.22;4979617;28;20133;-67
2023/04/28 04:22:36;;;;;;;28.50;14.68;;;;;;;8.55;92.76;101010.38;4995127;28;20030;-67
2023/04/28 04:25:02;;;;;;;24.60;15.07;;;;;;;8.56;93.26;101014.69;4994307;28;20033;-67
2023/04/28 04:27:27;;;;;;;24.85;15.25;;;;;;;8.58;93.13;101018.25;4994899;28;20040;-67
2023/04/28 04:29:52;;;;;;;23.90;14.98;;;;;;;8.57;92.64;101016.47;4995705;28;20040;-67
2023/04/28 04:32:18;;;;;;;26.65;15.48;;;;;;;8.56;92.47;101015.59;4995887;28;20054;-67
2023/04/28 04:34:43;;;;;;;25.27;15.07;;;;;;;8.57;93.21;101012.16;5137233;23;20050;-67
2023/04/28 04:37:09;;;;;;;25.77;15.80;;;;;;;8.56;93.67;101007.81;5003874;28;20029;-67
2023/04/28 04:39:34;;;;;;;28.05;16.00;;;;;;;8.55;93.41;101002.56;5001667;28;20504;-67
2023/04/28 04:42:00;;;;;;;25.77;15.27;;;;;;;8.55;93.28;100997.38;5002201;28;20022;-67
2023/04/28 04:44:25;;;;;;;26.63;15.77;;;;;;;8.57;93.72;100993.97;4981082;28;20076;-67
2023/04/28 04:46:51;;;;;;;27.70;16.02;;;;;;;8.63;93.83;100988.09;5002580;28;20036;-67
2023/04/28 04:49:16;;;;;;;25.50;15.40;;;;;;;8.65;94.09;100978.69;5002720;28;20424;-67
2023/04/28 04:51:42;;;;;;;25.42;15.93;;;;;;;8.71;94.16;100978.88;4984207;28;20038;-67
2023/04/28 04:54:07;;;;;;;26.45;15.50;;;;;;;8.75;93.86;100970.34;5003131;28;20054;-67
2023/04/28 04:56:32;;;;;;;25.80;15.73;;;;;;;8.79;93.11;100972.22;5001658;28;20038;-67
2023/04/28 04:58:58;;;;;;;25.02;15.57;;;;;;;8.80;93.31;100973.09;5002052;28;20314;-67
2023/04/28 05:01:23;;;;;;;23.63;15.43;;;;;;;8.82;92.91;100971.41;5002544;28;20037;-67
2023/04/28 05:03:48;;;;;;;25.13;16.33;;;;;;;8.80;93.76;100973.09;5003443;28;20041;-67
2023/04/28 05:06:14;;;;;;;26.92;16.33;;;;;;;8.80;94.09;100966.16;5003207;28;20026;-67
2023/04/28 05:08:39;;;;;;;26.48;16.50;;;;;;;8.78;93.74;100969.56;5002768;28;20734;-67
2023/04/28 05:11:04;;;;;;;28.33;16.58;;;;;;;8.78;93.99;100974.78;4984563;28;20045;-67
2023/04/28 05:13:29;;;;;;;28.23;17.42;;;;;;;8.79;93.97;100976.50;5003521;28;20026;-67
2023/04/28 05:15:55;;;;;;;31.10;17.30;;;;;;;8.77;94.29;100970.41;5003013;28;20494;-67
2023/04/28 05:18:20;;;;;;;27.35;17.13;;;;;;;8.76;95.10;100961.72;5003113;28;20037;-67
2023/04/28 05:20:46;;;;;;;28.92;17.90;;;;;;;8.74;96.03;100953.00;5003227;28;20048;-67
2023/04/28 05:23:11;;;;;;;28.08;16.92;;;;;;;8.75;95.45;100956.47;5003162;28;20533;-67
2023/04/28 05:25:36;;;;;;;27.15;16.88;;;;;;;8.75;95.21;100956.47;5002564;28;20035;-67
2023/04/28 05:28:06;;;;;;;27.95;17.33;;;;;;;8.71;95.64;100958.09;5003155;28;20034;-68
2023/04/28 05:30:32;;;;;;;29.52;17.05;;;;;;;8.69;95.55;100959.75;5003041;28;20112;-67
2023/04/28 05:32:57;;;;;;;28.55;17.33;;;;;;;8.70;95.79;100956.31;5002936;28;20033;-67
2023/04/28 05:35:23;;;;;;;31.25;19.02;;;;;;;8.70;95.77;100972.81;4989688;28;20061;-67
2023/04/28 05:37:48;;;;;;;30.90;18.15;;;;;;;8.70;95.83;100970.22;4986455;28;20034;-67
2023/04/28 05:40:13;;;;;;;26.83;17.63;;;;;;;8.73;96.38;100972.00;4986373;28;20034;-67
2023/04/28 05:42:39;;;;;;;30.92;17.83;;;;;;;8.74;96.41;100965.97;4986074;28;20078;-67
2023/04/28 05:45:05;;;;;;;27.33;17.25;;;;;;;8.76;96.69;100964.34;4989001;28;20524;-67
2023/04/28 05:47:31;;;;;;;30.58;17.67;;;;;;;8.78;96.38;100962.66;4990081;28;20322;-67
2023/04/28 05:49:56;;;;;;;25.75;16.85;;;;;;;8.80;96.58;100965.28;4989897;28;20560;-67
2023/04/28 05:52:22;;;;;;;28.83;17.73;;;;;;;8.83;97.17;100961.06;4989551;28;20033;-67
2023/04/28 05:54:47;;;;;;;28.70;17.67;;;;;;;8.87;97.36;100960.34;4988477;28;20050;-67
2023/04/28 05:57:13;;;;;;;28.63;17.73;;;;;;;8.91;96.73;100966.53;4988773;28;20841;-67
2023/04/28 05:59:38;;;;;;;29.33;17.88;;;;;;;8.94;97.51;100958.84;4988808;28;20113;-67
2023/04/28 06:02:03;;;;;;;29.67;18.58;;;;;;;8.99;97.21;100959.88;4989303;28;20113;-67
2023/04/28 06:04:29;;;;;;;29.42;17.70;;;;;;;9.02;97.13;100959.06;4988932;28;20390;-67
2023/04/28 06:06:54;;;;;;;28.85;18.35;;;;;;;9.06;97.55;100955.72;5204980;23;20050;-67
2023/04/28 06:09:20;;;;;;;29.80;18.17;;;;;;;9.08;97.57;100954.09;5004282;28;20061;-67
2023/04/28 06:11:45;;;;;;;26.05;16.65;;;;;;;9.11;97.58;100959.38;5004756;28;20387;-67
2023/04/28 06:14:10;;;;;;;27.65;18.63;;;;;;;9.17;97.74;100953.50;5004528;28;20486;-67
2023/04/28 06:16:35;;;;;;;29.75;18.05;;;;;;;9.21;98.22;100951.03;5004747;28;20067;-67
2023/04/28 06:19:01;;;;;;;29.75;18.05;;;;;;;9.29;98.14;100950.38;5003027;28;20022;-67
2023/04/28 06:21:27;;;;;;;27.92;17.33;;;;;;;9.35;98.15;100948.81;5004357;28;20128;-67
2023/04/28 06:23:52;;;;;;;26.65;16.85;;;;;;;9.39;98.39;100949.81;5003738;28;20058;-67
2023/04/28 06:26:18;;;;;;;27.15;17.27;;;;;;;9.45;98.49;100951.72;5004220;28;20054;-67
2023/04/28 06:28:43;;;;;;;28.52;17.40;;;;;;;9.49;99.16;100950.97;5004903;28;20022;-67
2023/04/28 06:31:08;;;;;;;30.55;18.02;;;;;;;9.54;99.34;100957.19;5006295;28;20060;-67
2023/04/28 06:33:34;;;;;;;29.15;18.50;;;;;;;9.61;99.86;100971.28;5003776;28;20233;-67
2023/04/28 06:35:59;;;;;;;43.97;28.75;;;;;;;9.67;100.00;100961.03;5003465;28;20021;-67
2023/04/28 06:38:24;;;;;;;35.22;22.50;;;;;;;9.73;100.00;100961.19;5004854;28;20030;-67
2023/04/28 06:40:50;;;;;;;27.65;17.55;;;;;;;9.77;99.45;100960.47;5005055;28;20022;-67
2023/04/28 06:43:15;;;;;;;28.98;17.42;;;;;;;9.80;99.84;100962.28;5003000;28;20105;-67
2023/04/28 06:45:41;;;;;;;28.23;18.85;;;;;;;9.83;100.00;100958.03;5002247;28;20042;-67
2023/04/28 06:48:07;;;;;;;46.47;29.30;;;;;;;9.88;100.00;100959.06;5003086;28;20057;-67
2023/04/28 06:50:32;;;;;;;26.83;17.33;;;;;;;9.94;100.00;100952.25;4983737;28;20044;-67
2023/04/28 06:52:57;;;;;;;24.67;17.00;;;;;;;9.98;100.00;100951.47;5001074;28;20101;-67
2023/04/28 06:55:23;;;;;;;27.80;18.30;;;;;;;10.01;100.00;100951.59;4998430;28;20038;-67
2023/04/28 06:57:48;;;;;;;27.55;16.52;;;;;;;10.02;100.00;100942.91;5000774;28;20034;-67
2023/04/28 07:00:14;;;;;;;29.13;17.23;;;;;;;10.04;100.00;100933.44;4998579;28;20389;-67
2023/04/28 07:07:56;;;;;;;24.95;17.00;;;;;;;10.15;100.00;100934.59;5021949;23;20081;-68
2023/04/28 07:10:22;;;;;;;24.52;16.60;;;;;;;10.18;100.00;100939.91;4990381;28;20029;-67
2023/04/28 07:12:50;;;;;;;26.73;17.27;;;;;;;10.21;100.00;100940.00;4990269;28;20703;-67
2023/04/28 07:15:15;;;;;;;24.73;16.30;;;;;;;10.25;100.00;100933.13;4990316;28;20032;-67
2023/04/28 07:17:40;;;;;;;24.90;16.83;;;;;;;10.31;100.00;100933.31;4988862;28;20109;-68
2023/04/28 07:20:06;;;;;;;80.28;47.65;;;;;;;10.38;100.00;100930.03;4972922;28;20058;-67
2023/04/28 07:22:32;;;;;;;42.45;28.77;;;;;;;10.47;100.00;100926.81;4989347;28;20069;-67
2023/04/28 07:24:57;;;;;;;25.23;16.65;;;;;;;10.52;100.00;100927.78;4988899;28;20108;-67
2023/04/28 07:27:22;;;;;;;25.48;16.58;;;;;;;10.56;100.00;100931.38;4989296;28;20519;-67
2023/04/28 07:29:48;;;;;;;22.13;15.68;;;;;;;10.59;100.00;100927.09;4988449;28;20030;-67
2023/04/28 07:32:13;;;;;;;25.20;16.35;;;;;;;10.62;100.00;100936.72;4989193;28;20073;-67
2023/04/28 07:34:38;;;;;;;25.55;16.40;;;;;;;10.65;100.00;100936.78;4989145;28;20034;-67
2023/04/28 07:37:04;;;;;;;22.70;15.82;;;;;;;10.69;100.00;100936.03;4989898;28;20023;-68
2023/04/28 07:39:33;;;;;;;26.52;16.98;;;;;;;10.74;100.00;100944.81;4988255;28;20397;-67
2023/04/28 07:41:59;;;;;;;;;;;;;;;10.82;100.00;100947.63;4988841;28;20053;-67
2023/04/28 07:44:24;;;;;;;21.70;15.40;;;;;;;10.87;100.00;100948.59;4989410;28;19918;-67
2023/04/28 07:46:50;;;;;;;23.48;16.23;;;;;;;10.89;100.00;100951.25;4989127;28;20029;-68
2023/04/28 07:49:16;;;;;;;25.35;16.30;;;;;;;10.89;100.00;100949.53;4988232;28;20116;-67
2023/04/28 07:51:41;;;;;;;24.23;16.10;;;;;;;10.92;100.00;100939.19;4970794;28;20032;-67
2023/04/28 07:54:07;;;;;;;22.38;15.88;;;;;;;10.97;100.00;100952.31;4987167;28;20034;-68
2023/04/28 07:56:33;;;;;;;24.63;16.27;;;;;;;11.01;100.00;100940.22;5082803;23;20050;-68
2023/04/28 07:58:58;;;;;;;23.38;15.70;;;;;;;11.03;100.00;100944.63;4994768;28;20497;-68
2023/04/28 08:01:23;;;;;;;24.33;15.70;;;;;;;11.05;100.00;100936.84;4993713;28;20030;-68
2023/04/28 08:03:49;;;;;;;24.40;15.95;;;;;;;11.08;100.00;100937.81;4994862;28;20084;-68
2023/04/28 08:06:14;;;;;;;22.60;15.25;;;;;;;11.12;100.00;100938.75;4994681;28;20064;-68
2023/04/28 08:08:40;;;;;;;23.27;16.00;;;;;;;11.13;100.00;100940.53;4994534;28;20108;-68
2023/04/28 08:11:06;;;;;;;21.30;15.05;;;;;;;11.15;100.00;100941.44;4992895;28;20057;-68
2023/04/28 08:13:32;;;;;;;22.90;16.42;;;;;;;11.19;100.00;100945.88;4994080;28;20061;-68
2023/04/28 08:15:59;;;;;;;23.20;16.05;;;;;;;11.24;100.00;100936.44;4994609;28;20026;-67
2023/04/28 08:18:25;;;;;;;23.30;15.98;;;;;;;11.28;100.00;100940.88;4993612;28;20026;-68
2023/04/28 08:20:50;;;;;;;22.45;15.82;;;;;;;11.33;100.00;100935.75;4993129;28;20133;-68
2023/04/28 08:23:15;;;;;;;21.55;15.50;;;;;;;11.37;100.00;100941.91;4995197;28;20026;-68
2023/04/28 08:25:41;;;;;;;21.58;15.85;;;;;;;11.40;100.00;100939.41;4992434;28;20074;-68
2023/04/28 08:28:07;;;;;;;26.30;16.83;;;;;;;11.40;100.00;100939.41;4992367;28;20033;-67
2023/04/28 08:30:33;;;;;;;24.08;16.88;;;;;;;11.39;100.00;100945.44;4975039;28;20529;-68
2023/04/28 08:32:58;;;;;;;21.15;15.88;;;;;;;11.40;100.00;100942.88;4974350;28;20026;-68
2023/04/28 08:35:23;;;;;;;22.17;16.17;;;;;;;11.40;100.00;100940.25;5177558;22;20046;-70
2023/04/28 08:37:50;;;;;;;22.95;16.45;;;;;;;11.40;100.00;100953.31;4986165;28;20027;-68
2023/04/28 08:40:16;;;;;;;23.38;17.00;;;;;;;11.42;100.00;100950.72;4986439;28;20018;-68
2023/04/28 08:42:43;;;;;;;23.95;16.65;;;;;;;11.44;100.00;100947.31;4986045;28;20517;-68
2023/04/28 08:45:12;;;;;;;25.50;16.92;;;;;;;11.47;100.00;100949.09;4985994;28;20037;-67
2023/04/28 08:47:40;;;;;;;25.10;16.92;;;;;;;11.52;100.00;100944.00;4986058;28;20030;-68
2023/04/28 08:50:07;;;;;;;23.23;16.83;;;;;;;11.57;100.00;100942.34;4985550;28;20153;-67
2023/04/28 08:52:34;;;;;;;23.80;17.25;;;;;;;11.62;100.00;100946.81;4986526;28;20034;-67
2023/04/28 08:55:04;;;;;;;26.73;18.25;;;;;;;11.70;100.00;100943.47;4986531;28;20092;-67
2023/04/28 08:57:43;;;;;;;25.33;17.80;;;;;;;11.72;100.00;100941.81;4986861;28;20089;-67
2023/04/28 09:00:09;;;;;;;30.75;17.65;;;;;;;11.75;100.00;100947.94;4986918;28;20109;-68
2023/04/28 09:02:36;;;;;;;29.65;18.10;;;;;;;11.80;100.00;100950.66;4986305;28;20065;-68
2023/04/28 09:05:08;;;;;;;29.85;19.20;;;;;;;11.84;100.00;100957.69;4969391;28;20061;-68
2023/04/28 09:07:35;;;;;;;29.20;18.85;;;;;;;11.92;100.00;100963.97;4968863;28;20030;-68
2023/04/28 09:10:21;;;;;;;28.60;19.00;;;;;;;11.92;100.00;100953.53;4986530;28;20626;-68
2023/04/28 09:12:50;;;;;;;27.58;19.23;;;;;;;11.96;100.00;100942.31;4986601;28;20026;-68
2023/04/28 09:15:36;;;;;;;29.20;19.13;;;;;;;12.02;100.00;100945.88;4984228;28;20027;-68
2023/04/28 09:18:02;;;;;;;28.70;19.35;;;;;;;12.11;100.00;100946.06;4985784;28;20038;-67
2023/04/28 09:20:30;;;;;;;28.73;18.55;;;;;;;12.16;100.00;100942.66;4986739;28;20508;-68
2023/04/28 09:23:12;;;;;;;26.83;18.08;;;;;;;12.23;100.00;100946.28;4987266;28;20033;-68
2023/04/28 09:25:37;;;;;;;27.38;17.83;;;;;;;12.32;100.00;100945.56;4987376;28;20069;-68
2023/04/28 09:28:22;;;;;;;29.08;18.23;;;;;;;12.40;100.00;100938.75;4987447;28;20069;-68
2023/04/28 09:30:47;;;;;;;27.08;16.98;;;;;;;12.47;100.00;100940.63;4987037;28;20038;-68
2023/04/28 09:33:14;;;;;;;28.48;17.77;;;;;;;12.52;100.00;100940.69;4987657;28;20054;-68
2023/04/28 09:35:41;;;;;;;28.70;17.73;;;;;;;12.60;100.00;100939.09;4980025;28;20054;-68
2023/04/28 09:38:07;;;;;;;30.48;18.70;;;;;;;12.67;100.00;100942.69;4976224;28;20026;-68
2023/04/28 09:40:33;;;;;;;29.48;18.98;;;;;;;12.68;100.00;100937.47;4975976;28;20027;-68
2023/04/28 09:42:58;;;;;;;30.65;18.08;;;;;;;12.69;100.00;100949.69;4959015;28;20030;-68
2023/04/28 09:45:24;;;;;;;33.20;19.85;;;;;;;12.72;100.00;100942.78;4976365;28;20089;-68
2023/04/28 09:47:50;;;;;;;33.40;19.85;;;;;;;12.73;100.00;100947.13;4976024;28;20022;-68
2023/04/28 09:50:17;;;;;;;34.22;18.75;;;;;;;12.72;100.00;100951.50;4976786;28;20033;-68
2023/04/28 09:52:45;;;;;;;31.90;19.38;;;;;;;12.72;100.00;100950.63;4976502;28;20070;-67
2023/04/28 09:55:11;;;;;;;30.35;18.92;;;;;;;12.72;100.00;100955.84;5173171;23;20057;-68
2023/04/28 09:57:38;;;;;;;29.90;18.48;;;;;;;12.70;100.00;100956.69;5164182;22;20153;-68
2023/04/28 10:00:06;;;;;;;31.08;18.52;;;;;;;12.70;100.00;100950.56;5103495;22;20058;-71
2023/04/28 10:02:35;;;;;;;30.87;19.03;;;;;;;12.70;100.00;100961.94;4993383;28;20176;-71
2023/04/28 10:05:00;;;;;;;34.37;20.00;;;;;;;12.68;100.00;100950.56;4988695;28;20858;-71
2023/04/28 10:07:26;;;;;;;34.40;19.85;;;;;;;12.70;100.00;100956.69;4992321;28;20034;-68
2023/04/28 10:09:52;;;;;;;35.75;20.75;;;;;;;12.71;100.00;100960.19;4993146;28;20116;-68
2023/04/28 10:12:18;;;;;;;38.42;22.05;;;;;;;12.70;100.00;100956.69;4992405;28;20049;-68
2023/04/28 10:14:45;;;;;;;42.10;23.83;;;;;;;12.70;100.00;100954.09;4993720;28;20018;-68
2023/04/28 10:17:13;;;;;;;43.55;24.23;;;;;;;12.71;100.00;100957.56;4993547;28;20510;-68
2023/04/28 10:19:42;;;;;;;49.97;27.37;;;;;;;12.73;100.00;100957.59;4993439;28;20093;-68
2023/04/28 10:22:38;;;;;;;49.92;27.25;;;;;;;12.76;100.00;100955.03;4992039;28;20108;-68
2023/04/28 10:25:21;;;;;;;60.13;29.67;;;;;;;12.78;100.00;100951.59;4991214;28;20038;-68
2023/04/28 10:27:48;;;;;;;60.55;31.70;;;;;;;12.81;100.00;100950.75;4991884;28;20121;-67
2023/04/28 10:30:20;;;;;;;77.00;40.30;;;;;;;12.85;100.00;100945.59;4994744;28;20038;-68
2023/04/28 10:32:47;;;;;;;78.97;38.15;;;;;;;12.90;100.00;100957.88;4995540;28;20050;-68
2023/04/28 10:35:24;;;;;;;76.25;36.35;;;;;;;12.91;100.00;100950.06;4995800;28;20029;-68
2023/04/28 10:38:09;;;;;;;70.05;34.53;;;;;;;12.95;100.00;100954.47;4993599;28;20026;-68
2023/04/28 10:40:40;;;;;;;71.55;37.47;;;;;;;12.98;100.00;100949.28;4995504;28;20044;-68
2023/04/28 10:43:07;;;;;;;72.53;35.90;;;;;;;13.00;100.00;100952.78;5180206;23;20021;-70
2023/04/28 10:45:48;;;;;;;75.20;35.97;;;;;;;13.07;100.00;100947.69;5198763;22;20089;-68
2023/04/28 10:48:14;;;;;;;68.72;34.83;;;;;;;13.13;100.00;100937.31;5386352;23;20051;-65
2023/04/28 10:53:44;;;;;;;61.53;32.42;;;;;;;13.31;100.00;100937.56;5095489;23;20054;-71
2023/04/28 10:56:11;;;;;;;62.92;34.35;;;;;;;13.38;100.00;100939.44;5387956;23;20051;-75
2023/04/28 10:58:44;;;;;;;63.63;32.60;;;;;;;13.44;100.00;100940.38;5305933;22;20039;-75
2023/04/28 11:01:25;;;;;;;59.42;33.33;;;;;;;13.49;100.00;100938.72;5423523;22;21093;-71
2023/04/28 11:06:44;;;;;;;56.63;31.45;;;;;;;13.64;100.00;100940.63;5268124;22;20153;-71
2023/04/28 11:09:13;;;;;;;57.03;30.98;;;;;;;13.66;100.00;100931.94;5182444;23;20061;-71
2023/04/28 11:11:55;;;;;;;51.70;30.15;;;;;;;13.72;100.00;100928.53;5246379;22;20021;31
2023/04/28 11:14:21;;;;;;;51.42;29.30;;;;;;;13.74;100.00;100925.06;4973529;28;20086;-75
2023/04/28 11:16:59;;;;;;;53.05;29.55;;;;;;;13.75;100.00;100925.94;5196936;22;20135;-71
2023/04/28 11:22:02;;;;;;;53.35;29.77;;;;;;;13.79;100.00;100916.34;5191746;22;20062;-71
2023/04/28 11:24:29;;;;;;;47.53;27.30;;;;;;;13.84;100.00;100927.78;5200501;23;20055;-75
2023/04/28 11:26:54;;;;;;;46.33;27.45;;;;;;;13.87;100.00;100923.44;5170921;22;20149;-71
2023/04/28 11:29:37;;;;;;;44.83;27.02;;;;;;;13.89;100.00;100920.88;5407052;22;20115;-71